Time;durP1;ratioP1;P1;durP2;ratioP2;P2;SDS_P1;SDS_P2;PMS_P1;PMS_P2;Temp;Humidity;BMP_temperature;BMP_pressure;BME280_temperature;BME280_humidity;BME280_pressure;Samples;Min_cycle;Max_cycle;Signal;HPM_P1;HPM_P2
2021/03/02 00:00:10;;;;;;;10.40;8.38;;;7.60;99.90;;;;;;5111634;28;20208;-77
2021/03/02 00:02:40;;;;;;;8.90;7.25;;;7.60;99.90;;;;;;5112722;28;20196;-77
2021/03/02 00:05:08;;;;;;;9.65;8.02;;;7.60;99.90;;;;;;5108362;27;20518;-76
2021/03/02 00:07:35;;;;;;;13.02;7.82;;;7.50;99.90;;;;;;5103613;28;20193;-76
2021/03/02 00:10:03;;;;;;;9.40;7.65;;;7.60;99.90;;;;;;5092434;28;20711;-77
2021/03/02 00:12:29;;;;;;;10.93;7.75;;;7.60;99.90;;;;;;5092532;28;20229;-77
2021/03/02 00:14:55;;;;;;;8.90;7.35;;;7.60;99.90;;;;;;5104601;28;20277;-74
2021/03/02 00:17:28;;;;;;;11.48;8.30;;;7.60;99.90;;;;;;5113039;28;20544;-76
2021/03/02 00:20:01;;;;;;;10.52;7.82;;;7.50;99.90;;;;;;5111338;28;20216;-75
2021/03/02 00:22:29;;;;;;;11.18;8.23;;;7.50;99.90;;;;;;5112107;28;20292;-74
2021/03/02 00:24:58;;;;;;;12.32;8.68;;;7.50;99.90;;;;;;5111579;27;20692;-76
2021/03/02 00:27:25;;;;;;;10.43;7.60;;;7.50;99.90;;;;;;5110270;28;20218;-75
2021/03/02 00:29:52;;;;;;;11.38;7.72;;;7.50;99.90;;;;;;5111955;28;20200;-75
2021/03/02 00:32:19;;;;;;;10.15;7.85;;;7.50;99.90;;;;;;5103893;28;20653;-77
2021/03/02 00:34:46;;;;;;;9.80;7.30;;;7.50;99.90;;;;;;5110977;28;20238;-77
2021/03/02 00:37:12;;;;;;;11.25;7.85;;;7.50;99.90;;;;;;5103102;28;20197;-75
2021/03/02 00:39:38;;;;;;;10.65;8.07;;;7.50;99.90;;;;;;5091913;28;20198;-75
2021/03/02 00:42:05;;;;;;;10.48;7.07;;;7.40;99.90;;;;;;5093726;28;20730;-76
2021/03/02 00:44:32;;;;;;;10.13;6.43;;;7.40;99.90;;;;;;5111219;28;20342;-75
2021/03/02 00:46:59;;;;;;;11.82;7.60;;;7.40;99.90;;;;;;5105385;28;20204;-75
2021/03/02 00:49:25;;;;;;;9.15;7.63;;;7.50;99.90;;;;;;5111336;28;20885;-77
2021/03/02 00:51:51;;;;;;;9.35;7.43;;;7.40;99.90;;;;;;5108652;28;20282;-76
2021/03/02 00:54:18;;;;;;;11.50;7.68;;;7.40;99.90;;;;;;5108770;28;20226;-76
2021/03/02 00:56:44;;;;;;;8.75;6.63;;;7.40;99.90;;;;;;5111618;28;20655;-76
2021/03/02 00:59:10;;;;;;;10.77;7.50;;;7.40;99.90;;;;;;5109316;28;20201;-75
2021/03/02 01:01:37;;;;;;;10.98;8.27;;;7.40;99.90;;;;;;5111453;28;20207;-75
2021/03/02 01:04:04;;;;;;;14.20;8.30;;;7.40;99.90;;;;;;5110094;28;20204;-76
2021/03/02 01:06:30;;;;;;;10.60;6.88;;;7.40;99.90;;;;;;5111630;28;20185;-76
2021/03/02 01:08:56;;;;;;;12.00;7.07;;;7.30;99.90;;;;;;5111470;28;20193;-76
2021/03/02 01:11:23;;;;;;;8.80;7.85;;;7.30;99.90;;;;;;5111477;28;20193;-75
2021/03/02 01:13:49;;;;;;;10.40;7.90;;;7.30;99.90;;;;;;5106021;28;20193;-76
2021/03/02 01:16:15;;;;;;;13.98;7.65;;;7.30;99.90;;;;;;5111593;28;20220;-76
2021/03/02 01:18:42;;;;;;;10.23;6.55;;;7.30;99.90;;;;;;5110115;28;20238;-76
2021/03/02 01:21:09;;;;;;;12.18;6.50;;;7.30;99.90;;;;;;5111841;28;20200;-76
2021/03/02 01:23:35;;;;;;;10.00;7.70;;;7.30;99.90;;;;;;5110688;28;20232;-76
2021/03/02 01:26:01;;;;;;;9.40;6.60;;;7.30;99.90;;;;;;5110713;28;20638;-76
2021/03/02 01:28:27;;;;;;;10.63;7.55;;;7.30;99.90;;;;;;5107778;28;20652;-76
2021/03/02 01:30:53;;;;;;;12.68;8.57;;;7.30;99.90;;;;;;5111314;28;20204;-76
2021/03/02 01:33:20;;;;;;;8.88;6.68;;;7.30;99.90;;;;;;5111175;28;20196;-75
2021/03/02 01:35:47;;;;;;;11.70;7.30;;;7.30;99.90;;;;;;5107430;28;20575;-74
2021/03/02 01:38:13;;;;;;;14.38;8.57;;;7.40;99.90;;;;;;5102522;28;20191;-75
2021/03/02 01:40:39;;;;;;;9.60;7.35;;;7.20;99.90;;;;;;5111081;28;20208;-76
2021/03/02 01:43:05;;;;;;;10.60;6.97;;;7.20;99.90;;;;;;5103744;28;20205;-75
2021/03/02 01:45:31;;;;;;;12.32;7.88;;;7.20;99.90;;;;;;5108953;28;20185;-76
2021/03/02 01:47:58;;;;;;;9.88;7.38;;;7.20;99.90;;;;;;5109078;28;20201;-76
2021/03/02 01:50:24;;;;;;;8.63;6.65;;;7.20;99.90;;;;;;5106241;28;20193;-76
2021/03/02 01:52:51;;;;;;;10.40;7.15;;;7.20;99.90;;;;;;5111159;28;20205;-75
2021/03/02 01:55:18;;;;;;;7.75;6.20;;;7.20;99.90;;;;;;5106877;28;20219;-75
2021/03/02 01:57:45;;;;;;;12.13;7.53;;;7.20;99.90;;;;;;5110264;28;20207;-75
2021/03/02 02:00:20;;;;;;;8.90;7.90;;;7.20;99.90;;;;;;5109671;28;20659;-75
2021/03/02 02:02:56;;;;;;;8.18;6.03;;;7.10;99.90;;;;;;5110783;28;20200;-75
2021/03/02 02:05:25;;;;;;;10.30;7.00;;;7.10;99.90;;;;;;5105356;28;20649;-75
2021/03/02 02:07:57;;;;;;;10.00;7.32;;;7.10;99.90;;;;;;5105122;28;20200;-75
2021/03/02 02:10:31;;;;;;;9.95;6.85;;;7.10;99.90;;;;;;5110125;28;20200;-76
2021/03/02 02:13:04;;;;;;;9.93;6.80;;;7.10;99.90;;;;;;5090672;28;20212;-75
2021/03/02 02:15:35;;;;;;;8.70;7.13;;;7.10;99.90;;;;;;5108421;28;20208;-76
2021/03/02 02:18:04;;;;;;;9.15;6.72;;;7.10;99.90;;;;;;5111107;28;20486;-75
2021/03/02 02:20:41;;;;;;;8.65;6.28;;;7.10;99.90;;;;;;5106418;28;20641;-76
2021/03/02 02:23:22;;;;;;;8.95;7.28;;;7.10;99.90;;;;;;5092543;28;20233;-75
2021/03/02 02:25:55;;;;;;;9.43;6.78;;;7.10;99.90;;;;;;5110187;28;20250;-75
2021/03/02 02:28:24;;;;;;;8.43;6.20;;;7.10;99.90;;;;;;5098994;28;20648;-74
2021/03/02 02:30:55;;;;;;;9.25;6.82;;;7.10;99.90;;;;;;5110137;28;20189;-75
2021/03/02 02:33:23;;;;;;;9.32;7.10;;;7.10;99.90;;;;;;5110802;28;20197;-76
2021/03/02 02:35:51;;;;;;;7.95;6.95;;;7.10;99.90;;;;;;5108333;28;20572;-76
2021/03/02 02:38:19;;;;;;;7.45;6.65;;;7.10;99.90;;;;;;5114754;28;20200;-75
2021/03/02 02:40:48;;;;;;;7.35;5.85;;;7.00;99.90;;;;;;5113125;28;20252;-76
2021/03/02 02:43:16;;;;;;;8.13;6.00;;;7.00;99.90;;;;;;5114114;28;20196;-75
2021/03/02 02:45:44;;;;;;;8.98;6.53;;;7.00;99.90;;;;;;5113022;28;20645;-76
2021/03/02 02:48:11;;;;;;;7.85;6.53;;;7.00;99.90;;;;;;5111547;28;20193;-76
2021/03/02 02:50:38;;;;;;;9.02;6.82;;;7.00;99.90;;;;;;5113962;28;20727;-75
2021/03/02 02:53:06;;;;;;;9.30;5.93;;;7.00;99.90;;;;;;5107610;28;20246;-76
2021/03/02 02:55:36;;;;;;;7.97;6.18;;;7.00;99.90;;;;;;5113307;28;20208;-76
2021/03/02 02:58:06;;;;;;;8.77;6.38;;;7.00;99.90;;;;;;5114132;28;20207;-76
2021/03/02 03:00:34;;;;;;;8.70;5.97;;;6.90;99.90;;;;;;5105498;28;20204;-75
2021/03/02 03:03:06;;;;;;;7.78;6.57;;;6.90;99.90;;;;;;5112188;28;20193;-74
2021/03/02 03:05:34;;;;;;;8.25;6.20;;;6.90;99.90;;;;;;5113609;28;20506;-74
2021/03/02 03:08:06;;;;;;;11.73;6.93;;;6.90;99.90;;;;;;5108307;28;20190;-76
2021/03/02 03:10:34;;;;;;;9.05;6.35;;;6.90;99.90;;;;;;5109792;28;20173;-76
2021/03/02 03:13:04;;;;;;;8.20;6.30;;;6.90;99.90;;;;;;5112604;28;20193;-75
2021/03/02 03:15:32;;;;;;;8.40;6.60;;;6.90;99.90;;;;;;5104736;28;20747;-75
2021/03/02 03:17:59;;;;;;;8.15;6.38;;;6.90;99.90;;;;;;5113659;28;20193;-77
2021/03/02 03:20:27;;;;;;;10.27;6.28;;;6.90;99.90;;;;;;5104059;27;20201;-76
2021/03/02 03:22:55;;;;;;;31.27;7.90;;;6.90;99.90;;;;;;5104922;27;20227;-79
2021/03/02 03:25:21;;;;;;;8.57;7.45;;;6.80;99.90;;;;;;5123398;27;20196;-76
2021/03/02 03:27:52;;;;;;;7.80;5.88;;;6.80;99.90;;;;;;5113930;28;20192;-75
2021/03/02 03:30:20;;;;;;;9.32;6.07;;;6.80;99.90;;;;;;5103042;27;20200;-77
2021/03/02 03:32:51;;;;;;;7.95;6.55;;;6.90;99.90;;;;;;5093218;28;20206;-77
2021/03/02 03:35:18;;;;;;;7.50;6.63;;;6.90;99.90;;;;;;5101554;28;20620;-77
2021/03/02 03:37:45;;;;;;;9.20;6.80;;;6.90;99.90;;;;;;5093346;28;20363;-77
2021/03/02 03:40:13;;;;;;;7.80;5.72;;;6.80;99.90;;;;;;5104184;28;20201;-76
2021/03/02 03:42:39;;;;;;;7.72;5.78;;;6.90;99.90;;;;;;5108293;28;20216;-77
2021/03/02 03:45:06;;;;;;;8.40;5.75;;;6.90;99.90;;;;;;5106095;28;20238;-74
2021/03/02 03:47:33;;;;;;;7.45;5.95;;;6.80;99.90;;;;;;5111777;28;20575;-76
2021/03/02 03:49:59;;;;;;;8.65;6.25;;;6.80;99.90;;;;;;5104518;28;20197;-76
2021/03/02 03:52:26;;;;;;;8.35;5.68;;;6.80;99.90;;;;;;5111880;28;20215;-76
2021/03/02 03:54:54;;;;;;;8.50;6.65;;;6.80;99.90;;;;;;5110524;28;20233;-76
2021/03/02 03:57:21;;;;;;;8.13;6.25;;;6.80;99.90;;;;;;5112921;28;20216;-76
2021/03/02 03:59:48;;;;;;;9.63;6.75;;;6.70;99.90;;;;;;5111992;28;20193;-76
2021/03/02 04:02:15;;;;;;;7.65;6.63;;;6.80;99.90;;;;;;5108896;28;20235;-77
2021/03/02 04:04:42;;;;;;;8.15;5.90;;;6.70;99.90;;;;;;5107292;28;20197;-76
2021/03/02 04:07:08;;;;;;;10.75;6.85;;;6.70;99.90;;;;;;5101403;28;20223;-76
2021/03/02 04:09:36;;;;;;;9.05;7.25;;;6.70;99.90;;;;;;5112758;28;20188;-76
2021/03/02 04:12:04;;;;;;;11.50;7.55;;;6.70;99.90;;;;;;5112837;28;20231;-76
2021/03/02 04:14:32;;;;;;;8.57;7.55;;;6.70;99.90;;;;;;5103002;28;20193;-76
2021/03/02 04:16:59;;;;;;;8.90;6.75;;;6.70;99.90;;;;;;5112041;28;20207;-76
2021/03/02 04:19:25;;;;;;;11.23;6.38;;;6.70;99.90;;;;;;5110918;28;20204;-77
2021/03/02 04:21:51;;;;;;;9.13;6.68;;;6.70;99.90;;;;;;5112213;28;20270;-77
2021/03/02 04:24:17;;;;;;;9.40;6.72;;;6.70;99.90;;;;;;5112447;28;20230;-76
2021/03/02 04:26:43;;;;;;;8.27;6.63;;;6.70;99.90;;;;;;5112633;28;20215;-77
2021/03/02 04:29:10;;;;;;;7.85;6.20;;;6.70;99.90;;;;;;5096327;28;20200;-77
2021/03/02 04:31:37;;;;;;;9.38;6.43;;;6.60;99.90;;;;;;5111689;28;20193;-76
2021/03/02 04:34:03;;;;;;;9.00;7.63;;;6.60;99.90;;;;;;5112218;28;20197;-76
2021/03/02 04:36:30;;;;;;;9.35;7.03;;;6.60;99.90;;;;;;5112347;28;20257;-75
2021/03/02 04:38:56;;;;;;;7.70;6.20;;;6.60;99.90;;;;;;5096682;28;20197;-76
2021/03/02 04:41:22;;;;;;;9.68;7.07;;;6.60;99.90;;;;;;5105557;28;20197;-77
2021/03/02 04:43:48;;;;;;;8.38;6.53;;;6.60;99.90;;;;;;5101108;28;20539;-76
2021/03/02 04:46:15;;;;;;;10.57;7.47;;;6.60;99.90;;;;;;5109701;28;20193;-77
2021/03/02 04:48:42;;;;;;;9.13;7.05;;;6.60;99.90;;;;;;5112488;28;20207;-77
2021/03/02 04:51:08;;;;;;;9.02;7.20;;;6.60;99.90;;;;;;5111400;28;20200;-77
2021/03/02 04:53:34;;;;;;;9.30;6.82;;;6.60;99.90;;;;;;5102445;28;20529;-78
2021/03/02 04:56:00;;;;;;;8.13;6.88;;;6.60;99.90;;;;;;5107997;28;20232;-77
2021/03/02 04:58:27;;;;;;;11.90;7.30;;;6.50;99.90;;;;;;5102147;28;20213;-77
2021/03/02 05:00:53;;;;;;;10.18;7.63;;;6.50;99.90;;;;;;5107339;28;20564;-77
2021/03/02 05:03:20;;;;;;;9.27;7.15;;;6.60;99.90;;;;;;5109658;28;20197;-75
2021/03/02 05:05:46;;;;;;;7.97;6.68;;;6.50;99.90;;;;;;5111495;28;20641;-75
2021/03/02 05:08:12;;;;;;;11.02;7.88;;;6.50;99.90;;;;;;5111606;28;20199;-75
2021/03/02 05:10:39;;;;;;;7.78;6.30;;;6.50;99.90;;;;;;5111533;28;20610;-75
2021/03/02 05:13:05;;;;;;;8.90;6.78;;;6.50;99.90;;;;;;5106512;28;20553;-75
2021/03/02 05:15:31;;;;;;;7.68;6.15;;;6.50;99.90;;;;;;5110413;28;20209;-75
2021/03/02 05:17:57;;;;;;;8.88;6.53;;;6.50;99.90;;;;;;5103698;28;20197;-75
2021/03/02 05:20:24;;;;;;;9.90;7.15;;;6.50;99.90;;;;;;5111359;28;20185;-76
2021/03/02 05:22:51;;;;;;;8.43;7.10;;;6.50;99.90;;;;;;5111410;28;20248;-76
2021/03/02 05:25:17;;;;;;;9.38;6.38;;;6.50;99.90;;;;;;5110219;28;20193;-76
2021/03/02 05:27:43;;;;;;;9.52;6.28;;;6.50;99.90;;;;;;5090929;28;20212;-76
2021/03/02 05:30:10;;;;;;;12.50;7.05;;;6.50;99.90;;;;;;5101363;28;20200;-76
2021/03/02 05:32:36;;;;;;;11.80;8.00;;;6.50;99.90;;;;;;5111267;28;20215;-76
2021/03/02 05:35:03;;;;;;;11.50;7.78;;;6.40;99.90;;;;;;5109989;28;20252;-76
2021/03/02 05:37:30;;;;;;;9.57;6.43;;;6.50;99.90;;;;;;5111019;28;20189;-76
2021/03/02 05:39:57;;;;;;;11.00;6.60;;;6.50;99.90;;;;;;5110230;28;20188;-76
2021/03/02 05:42:23;;;;;;;8.55;6.85;;;6.40;99.90;;;;;;5110508;28;20189;-76
2021/03/02 05:44:50;;;;;;;7.50;6.70;;;6.40;99.90;;;;;;5110935;28;20200;-76
2021/03/02 05:47:16;;;;;;;7.68;6.28;;;6.40;99.90;;;;;;5110432;28;20200;-76
2021/03/02 05:49:43;;;;;;;8.60;7.00;;;6.40;99.90;;;;;;5097867;28;20860;-76
2021/03/02 05:52:11;;;;;;;9.55;7.82;;;6.50;99.90;;;;;;5110908;28;20197;-77
2021/03/02 05:54:39;;;;;;;8.15;6.40;;;6.40;99.90;;;;;;5110072;28;20656;-77
2021/03/02 05:57:06;;;;;;;10.02;7.68;;;6.40;99.90;;;;;;5100446;28;20688;-77
2021/03/02 05:59:33;;;;;;;10.15;6.78;;;6.40;99.90;;;;;;5102267;28;20204;-77
2021/03/02 06:02:00;;;;;;;11.55;8.30;;;6.40;99.90;;;;;;5109685;28;20211;-75
2021/03/02 06:04:27;;;;;;;7.88;6.40;;;6.40;99.90;;;;;;5111307;28;20215;-75
2021/03/02 06:07:00;;;;;;;9.13;6.90;;;6.40;99.90;;;;;;5106297;28;20789;-75
2021/03/02 06:09:27;;;;;;;9.52;6.85;;;6.30;99.90;;;;;;5093058;28;20193;-75
2021/03/02 06:12:02;;;;;;;10.50;7.95;;;6.30;99.90;;;;;;5106327;28;20261;-75
2021/03/02 06:14:30;;;;;;;9.77;6.97;;;6.40;99.90;;;;;;5096101;28;20591;-75
2021/03/02 06:16:57;;;;;;;8.43;6.05;;;6.40;99.90;;;;;;5114370;28;20331;-76
2021/03/02 06:19:41;;;;;;;12.30;8.00;;;6.40;99.90;;;;;;5110154;28;20518;-76
2021/03/02 06:22:08;;;;;;;8.25;6.68;;;6.30;99.90;;;;;;5114723;28;20820;-76
2021/03/02 06:24:35;;;;;;;9.25;7.22;;;6.30;99.90;;;;;;5114710;28;20196;-77
2021/03/02 06:27:11;;;;;;;8.13;6.90;;;6.30;99.90;;;;;;5112041;28;20193;-76
2021/03/02 06:29:37;;;;;;;10.40;6.95;;;6.30;99.90;;;;;;5094403;28;20709;-77
2021/03/02 06:32:04;;;;;;;9.38;7.90;;;6.30;99.90;;;;;;5102782;28;20189;-77
2021/03/02 06:34:30;;;;;;;8.95;6.10;;;6.30;99.90;;;;;;5114605;28;20243;-75
2021/03/02 06:37:02;;;;;;;9.10;7.25;;;6.30;99.90;;;;;;5117126;27;20688;-75
2021/03/02 06:39:31;;;;;;;10.10;7.35;;;6.30;99.90;;;;;;5097062;28;20645;-75
2021/03/02 06:42:13;;;;;;;9.05;7.00;;;6.30;99.90;;;;;;5106942;28;20200;-76
2021/03/02 06:44:40;;;;;;;10.30;7.25;;;6.30;99.90;;;;;;5109618;28;20224;-76
2021/03/02 06:47:06;;;;;;;9.40;6.20;;;6.30;99.90;;;;;;5114207;27;20196;-76
2021/03/02 06:49:44;;;;;;;9.70;7.30;;;6.30;99.90;;;;;;5114554;27;20200;-76
2021/03/02 06:52:15;;;;;;;10.15;6.40;;;6.30;99.90;;;;;;5111671;28;20188;-76
2021/03/02 06:54:41;;;;;;;7.93;6.50;;;6.30;99.90;;;;;;5113333;28;20193;-76
2021/03/02 06:57:08;;;;;;;8.35;7.07;;;6.30;99.90;;;;;;5112497;28;20215;-77
2021/03/02 06:59:35;;;;;;;8.80;7.60;;;6.30;99.90;;;;;;5114022;28;20196;-76
2021/03/02 07:02:01;;;;;;;11.02;7.20;;;6.30;99.90;;;;;;5113921;28;20184;-75
2021/03/02 07:04:29;;;;;;;9.43;7.55;;;6.30;99.90;;;;;;5105529;28;20193;-76
2021/03/02 07:06:57;;;;;;;8.40;6.53;;;6.30;99.90;;;;;;5097275;28;20184;-75
2021/03/02 07:09:25;;;;;;;7.72;6.68;;;6.30;99.90;;;;;;5113222;28;20295;-76
2021/03/02 07:11:54;;;;;;;7.95;6.72;;;6.20;99.90;;;;;;5111965;28;20204;-75
2021/03/02 07:14:21;;;;;;;9.73;7.60;;;6.20;99.90;;;;;;5113530;28;20193;-76
2021/03/02 07:16:49;;;;;;;7.03;6.18;;;6.40;99.90;;;;;;5108292;28;20263;-76
2021/03/02 07:19:18;;;;;;;7.57;6.88;;;6.40;99.90;;;;;;5111312;28;20196;-77
2021/03/02 07:21:47;;;;;;;8.15;6.88;;;6.50;99.90;;;;;;5112794;28;20233;-78
2021/03/02 07:24:15;;;;;;;6.82;6.07;;;6.50;99.90;;;;;;5111980;28;20195;-78
2021/03/02 07:26:44;;;;;;;10.10;7.93;;;6.50;99.90;;;;;;5107570;28;20284;-75
2021/03/02 07:29:10;;;;;;;7.78;6.30;;;6.60;99.90;;;;;;5113030;28;20279;-77
2021/03/02 07:31:38;;;;;;;10.07;7.13;;;6.90;99.90;;;;;;5113125;28;20193;-76
2021/03/02 07:34:07;;;;;;;8.73;6.90;;;7.00;99.90;;;;;;5097865;28;20216;-76
2021/03/02 07:36:35;;;;;;;8.00;6.32;;;7.20;99.90;;;;;;5114278;28;20656;-77
2021/03/02 07:39:19;;;;;;;8.65;6.25;;;7.30;99.90;;;;;;5109462;28;20217;-77
2021/03/02 07:41:47;;;;;;;7.10;6.10;;;7.50;99.90;;;;;;5096766;28;20208;-78
2021/03/02 07:44:13;;;;;;;6.75;6.05;;;7.60;99.90;;;;;;5100026;28;20653;-77
2021/03/02 07:46:52;;;;;;;8.23;6.07;;;7.80;99.90;;;;;;5113843;28;20193;-75
2021/03/02 07:49:32;;;;;;;7.00;6.10;;;8.00;99.90;;;;;;5112550;28;20195;-75
2021/03/02 07:52:17;;;;;;;9.93;7.25;;;8.10;99.90;;;;;;5112399;28;20790;-75
2021/03/02 07:54:45;;;;;;;10.77;6.35;;;8.30;99.90;;;;;;5103017;28;20201;-75
2021/03/02 07:57:26;;;;;;;9.20;5.70;;;8.40;99.90;;;;;;5091912;28;20253;-76
2021/03/02 08:00:22;;;;;;;8.20;6.75;;;8.50;99.90;;;;;;5093432;28;20613;-76
2021/03/02 08:03:17;;;;;;;9.05;7.38;;;8.60;99.90;;;;;;5110793;28;20205;-76
2021/03/02 08:05:44;;;;;;;9.60;6.78;;;8.70;99.90;;;;;;5112033;28;20196;-77
2021/03/02 08:08:34;;;;;;;8.70;6.25;;;8.80;99.90;;;;;;5114026;28;20196;-77
2021/03/02 08:11:03;;;;;;;9.30;7.28;;;8.80;99.90;;;;;;5109054;27;20199;-77
2021/03/02 08:13:34;;;;;;;8.73;7.82;;;8.90;99.90;;;;;;5103867;27;20637;-76
2021/03/02 08:16:01;;;;;;;8.10;6.97;;;8.90;99.90;;;;;;5099113;28;20217;-77
2021/03/02 08:18:33;;;;;;;8.13;6.43;;;8.90;99.90;;;;;;5096450;28;20205;-78
2021/03/02 08:21:21;;;;;;;8.52;6.65;;;8.90;99.90;;;;;;5097239;28;20197;-78
2021/03/02 08:23:50;;;;;;;7.20;5.88;;;9.00;99.90;;;;;;5094526;27;20189;-77
2021/03/02 08:26:21;;;;;;;9.57;6.63;;;9.10;99.90;;;;;;5106066;27;20197;-76
2021/03/02 08:29:03;;;;;;;9.00;7.50;;;9.20;99.90;;;;;;5119038;27;20204;-77
2021/03/02 08:31:29;;;;;;;9.95;6.95;;;9.20;99.90;;;;;;5091544;28;20190;-76
2021/03/02 08:33:58;;;;;;;8.05;6.47;;;9.30;99.90;;;;;;5095183;27;20262;-79
2021/03/02 08:36:25;;;;;;;7.68;5.88;;;9.40;99.90;;;;;;5107122;28;20583;-79
2021/03/02 08:38:52;;;;;;;8.65;6.97;;;9.40;99.90;;;;;;5099629;28;20204;-78
2021/03/02 08:41:31;;;;;;;7.13;5.60;;;9.50;99.90;;;;;;5096293;27;20202;-78
2021/03/02 08:43:57;;;;;;;6.85;5.20;;;9.50;99.90;;;;;;5096151;27;20189;-77
2021/03/02 08:46:28;;;;;;;10.02;5.75;;;9.60;99.90;;;;;;5098946;28;20200;-78
2021/03/02 08:48:54;;;;;;;7.47;5.50;;;9.60;99.90;;;;;;5097760;28;20251;-75
2021/03/02 08:51:22;;;;;;;6.85;5.97;;;9.70;99.90;;;;;;5094334;27;20285;-76
2021/03/02 08:53:49;;;;;;;8.50;6.00;;;9.70;99.90;;;;;;5093542;27;20197;-75
2021/03/02 08:56:21;;;;;;;6.05;4.93;;;9.70;99.90;;;;;;5098525;28;20304;-82
2021/03/02 08:58:49;;;;;;;7.30;4.60;;;9.80;99.90;;;;;;5100137;28;20201;-80
2021/03/02 09:01:24;;;;;;;6.85;5.35;;;9.80;99.90;;;;;;5097716;28;20197;-79
2021/03/02 09:03:51;;;;;;;6.35;5.63;;;9.80;99.90;;;;;;5105197;27;20237;-79
2021/03/02 09:06:20;;;;;;;5.90;4.70;;;9.90;99.90;;;;;;5099745;28;20193;-79
2021/03/02 09:08:52;;;;;;;5.85;4.95;;;9.90;99.90;;;;;;5108685;28;20192;-79
2021/03/02 09:11:21;;;;;;;7.50;5.60;;;9.90;99.90;;;;;;5104962;28;20274;-79
2021/03/02 09:13:48;;;;;;;5.80;4.15;;;9.90;99.90;;;;;;5108586;28;20209;-79
2021/03/02 09:16:29;;;;;;;5.68;5.00;;;9.90;99.90;;;;;;5100030;28;20556;-79
2021/03/02 09:19:14;;;;;;;6.13;4.65;;;9.90;99.90;;;;;;5096863;28;20219;-79
2021/03/02 09:21:43;;;;;;;5.70;4.60;;;9.90;99.90;;;;;;5093264;28;20229;-79
2021/03/02 09:24:14;;;;;;;6.75;5.20;;;9.90;99.90;;;;;;5097132;28;20824;-79
2021/03/02 09:26:40;;;;;;;4.75;4.35;;;9.90;99.90;;;;;;5095404;28;20281;-79
2021/03/02 09:29:09;;;;;;;7.63;4.38;;;9.90;99.90;;;;;;5093009;28;20201;-80
2021/03/02 09:31:36;;;;;;;7.15;5.35;;;9.90;99.90;;;;;;5103065;28;20208;-79
2021/03/02 09:34:02;;;;;;;5.60;4.65;;;9.90;99.90;;;;;;5101151;28;20189;-80
2021/03/02 09:36:30;;;;;;;5.55;4.63;;;9.90;99.90;;;;;;5091012;28;20287;-79
2021/03/02 09:38:58;;;;;;;6.28;4.75;;;9.90;99.90;;;;;;5102085;28;20254;-80
2021/03/02 09:41:35;;;;;;;8.10;5.90;;;9.90;99.90;;;;;;5099708;28;20201;-79
2021/03/02 09:44:25;;;;;;;5.93;5.22;;;9.90;99.90;;;;;;5104541;28;20208;-80
2021/03/02 09:46:54;;;;;;;5.30;4.80;;;10.00;99.90;;;;;;5105274;28;20238;-80
2021/03/02 09:49:33;;;;;;;5.22;3.88;;;10.00;99.90;;;;;;5094444;28;20402;-80
2021/03/02 09:52:00;;;;;;;5.18;4.20;;;10.00;99.90;;;;;;5098270;28;20192;-80
2021/03/02 09:54:26;;;;;;;5.63;4.25;;;10.00;99.90;;;;;;5095937;28;20201;-79
2021/03/02 09:56:57;;;;;;;5.38;4.43;;;10.00;99.90;;;;;;5099247;28;20220;-80
2021/03/02 09:59:24;;;;;;;5.30;4.63;;;9.90;99.90;;;;;;5094192;28;20198;-79
2021/03/02 10:01:51;;;;;;;4.88;4.00;;;10.00;99.90;;;;;;5096718;28;20189;-80
2021/03/02 10:04:18;;;;;;;7.10;4.07;;;10.00;99.90;;;;;;5093918;28;20200;-80
2021/03/02 10:06:44;;;;;;;6.13;4.22;;;10.00;99.90;;;;;;5095422;28;20189;-80
2021/03/02 10:09:24;;;;;;;10.35;5.15;;;10.00;99.90;;;;;;5092368;28;20212;-75
2021/03/02 10:12:10;;;;;;;5.03;4.10;;;10.00;99.90;;;;;;5090998;28;20193;-77
2021/03/02 10:14:38;;;;;;;6.80;5.70;;;10.00;99.90;;;;;;5101099;28;20196;-74
2021/03/02 10:17:04;;;;;;;7.53;4.50;;;10.00;99.90;;;;;;5104502;28;20222;-77
2021/03/02 10:19:30;;;;;;;7.93;5.07;;;10.00;99.90;;;;;;5096810;28;20201;-78
2021/03/02 10:21:58;;;;;;;8.00;5.43;;;10.00;99.90;;;;;;5092060;28;20621;-78
2021/03/02 10:24:26;;;;;;;6.50;4.60;;;10.00;99.90;;;;;;5103477;28;20292;-78
2021/03/02 10:26:53;;;;;;;6.65;4.78;;;10.00;99.90;;;;;;5094234;28;20190;-74
2021/03/02 10:29:21;;;;;;;10.82;5.10;;;10.00;99.90;;;;;;5097675;28;20200;-81
2021/03/02 10:31:47;;;;;;;4.90;4.28;;;10.00;99.90;;;;;;5095505;28;20204;-84
2021/03/02 10:34:14;;;;;;;6.55;4.63;;;10.00;99.90;;;;;;5101136;28;20644;-81
2021/03/02 10:36:42;;;;;;;5.72;4.45;;;10.00;99.90;;;;;;5094575;28;20213;-82
2021/03/02 10:39:10;;;;;;;5.40;4.72;;;10.10;99.90;;;;;;5098064;28;20192;-80
2021/03/02 10:41:37;;;;;;;9.27;4.82;;;10.10;99.90;;;;;;5100248;28;20201;-79
2021/03/02 10:44:04;;;;;;;5.35;4.55;;;10.00;99.90;;;;;;5094973;28;20246;-80
2021/03/02 10:46:32;;;;;;;11.00;6.45;;;10.10;99.90;;;;;;5096245;28;20196;-75
2021/03/02 10:48:59;;;;;;;6.80;5.60;;;10.00;99.90;;;;;;5095197;28;20625;-79
2021/03/02 10:51:26;;;;;;;8.05;6.25;;;10.10;99.90;;;;;;5095755;28;20513;-80
2021/03/02 10:53:54;;;;;;;5.90;4.75;;;10.00;99.90;;;;;;5101219;28;20193;-77
2021/03/02 10:56:20;;;;;;;8.40;5.50;;;10.00;99.90;;;;;;5093510;28;20205;-79
2021/03/02 10:58:48;;;;;;;8.00;6.55;;;10.10;99.90;;;;;;5111048;28;20295;-79
2021/03/02 11:01:15;;;;;;;7.20;5.15;;;10.10;99.90;;;;;;5099704;28;20202;-76
2021/03/02 11:03:43;;;;;;;6.90;5.53;;;10.00;99.90;;;;;;5098198;28;20207;-75
2021/03/02 11:06:11;;;;;;;7.88;5.50;;;10.00;99.90;;;;;;5102702;28;20197;-77
2021/03/02 11:08:37;;;;;;;10.05;6.78;;;10.00;99.90;;;;;;5103272;28;20201;-77
2021/03/02 11:11:03;;;;;;;6.35;5.18;;;10.00;99.90;;;;;;5102270;28;20234;-84
2021/03/02 11:13:29;;;;;;;9.55;6.00;;;10.00;99.90;;;;;;5105782;28;20204;-79
2021/03/02 11:15:56;;;;;;;7.35;5.57;;;10.00;99.90;;;;;;5101900;28;20221;-79
2021/03/02 11:18:22;;;;;;;6.57;5.80;;;10.10;99.90;;;;;;5096169;28;20197;-81
2021/03/02 11:20:49;;;;;;;10.05;6.70;;;10.00;99.90;;;;;;5100506;28;20208;-76
2021/03/02 11:23:16;;;;;;;9.07;5.88;;;10.10;99.90;;;;;;5104560;28;20791;-79
2021/03/02 11:25:43;;;;;;;9.02;6.50;;;10.10;99.90;;;;;;5105367;28;20196;-80
2021/03/02 11:28:10;;;;;;;10.10;7.53;;;10.10;99.90;;;;;;5107251;28;20220;-81
2021/03/02 11:30:37;;;;;;;10.00;7.07;;;10.10;99.90;;;;;;5097406;28;20201;-77
2021/03/02 11:33:03;;;;;;;8.57;6.32;;;10.10;99.90;;;;;;5112732;28;20215;-77
2021/03/02 11:35:29;;;;;;;9.60;6.45;;;10.10;99.90;;;;;;5113887;28;20525;-82
2021/03/02 11:37:57;;;;;;;9.25;6.47;;;10.10;99.90;;;;;;5102148;27;20194;-77
2021/03/02 11:40:23;;;;;;;10.45;6.10;;;10.20;99.90;;;;;;5113055;28;20193;-76
2021/03/02 11:42:52;;;;;;;8.43;6.95;;;10.20;99.90;;;;;;5100095;28;20209;-77
2021/03/02 11:45:19;;;;;;;8.73;5.55;;;10.20;99.90;;;;;;5092847;28;20194;-81
2021/03/02 11:47:45;;;;;;;9.00;6.38;;;10.20;99.90;;;;;;5106025;28;20208;-81
2021/03/02 11:50:13;;;;;;;8.93;6.78;;;10.20;99.90;;;;;;5113408;28;20197;-77
2021/03/02 11:52:39;;;;;;;8.13;6.28;;;10.20;99.90;;;;;;5112154;28;20193;-78
2021/03/02 11:55:08;;;;;;;10.27;5.88;;;10.30;99.90;;;;;;5113370;28;20222;-78
2021/03/02 11:57:35;;;;;;;10.25;6.75;;;10.30;99.90;;;;;;5112512;28;20220;-76
2021/03/02 12:00:01;;;;;;;15.45;6.50;;;10.30;99.90;;;;;;5113176;28;20197;-76
2021/03/02 12:02:28;;;;;;;10.23;5.95;;;10.30;99.90;;;;;;5113066;28;20185;-77
2021/03/02 12:04:54;;;;;;;6.78;6.05;;;10.40;99.90;;;;;;5113003;28;20216;-79
2021/03/02 12:07:20;;;;;;;7.50;6.28;;;10.30;99.90;;;;;;5106387;28;20197;-77
2021/03/02 12:09:47;;;;;;;13.90;6.50;;;10.30;99.90;;;;;;5111471;28;20256;-78
2021/03/02 12:12:14;;;;;;;12.65;6.13;;;10.40;99.90;;;;;;5102373;28;20212;-78
2021/03/02 12:14:41;;;;;;;8.50;6.05;;;10.30;99.90;;;;;;5112467;28;20206;-78
2021/03/02 12:17:07;;;;;;;14.23;6.57;;;10.40;99.90;;;;;;5112424;28;20216;-78
2021/03/02 12:19:33;;;;;;;9.55;6.07;;;10.40;99.90;;;;;;5110948;27;20544;-77
2021/03/02 12:21:59;;;;;;;7.32;4.95;;;10.40;99.90;;;;;;5111004;28;20858;-77
2021/03/02 12:24:26;;;;;;;8.45;5.05;;;10.40;99.90;;;;;;5112764;28;20208;-76
2021/03/02 12:26:52;;;;;;;9.88;6.28;;;10.40;99.90;;;;;;5112887;28;20205;-77
2021/03/02 12:29:19;;;;;;;6.97;5.32;;;10.40;99.90;;;;;;5111334;28;20599;-75
2021/03/02 12:31:45;;;;;;;8.38;5.82;;;10.50;99.90;;;;;;5112439;28;20200;-76
2021/03/02 12:34:12;;;;;;;7.32;4.97;;;10.50;99.90;;;;;;5112254;28;20214;-76
2021/03/02 12:36:39;;;;;;;8.35;6.45;;;10.50;99.90;;;;;;5110378;27;20232;-75
2021/03/02 12:39:09;;;;;;;8.18;5.95;;;10.50;99.90;;;;;;5099521;28;20205;-79
2021/03/02 12:41:37;;;;;;;8.88;6.40;;;10.50;99.90;;;;;;5092338;28;20193;-79
2021/03/02 12:44:04;;;;;;;6.97;5.25;;;10.60;99.90;;;;;;5096018;28;20655;-76
2021/03/02 12:46:31;;;;;;;7.20;5.38;;;10.60;99.90;;;;;;5102799;28;20204;-76
2021/03/02 12:48:57;;;;;;;8.00;5.90;;;10.60;99.90;;;;;;5111997;28;20749;-76
2021/03/02 12:51:23;;;;;;;7.97;5.43;;;10.60;99.90;;;;;;5094140;28;20657;-76
2021/03/02 12:53:50;;;;;;;4.90;4.30;;;10.60;99.90;;;;;;5103744;28;20215;-76
2021/03/02 12:56:16;;;;;;;6.90;5.15;;;10.60;99.90;;;;;;5108687;28;20247;-75
2021/03/02 12:58:42;;;;;;;5.43;4.40;;;10.60;99.90;;;;;;5092074;28;20263;-76